Orangeburg, SC (29115)

3:59 PM EDT on August 30, 2015 (GMT -0400)
APRSWXNET | | Change Station
CLOSE
Current Station
Personal Weather Station
Location: Cordova, SC
Elevation: 206 ft
Nearby Weather Stations

Elev 206 ft 33.49 °N, 80.93 °W | Updated 23 minutes ago

Rain
Rain
79 °F
Feels Like 83 °F
N
0
Wind Variable Wind from West
Gusts 3.0 mph

Today
High -- | Low -- °F
--% Chance of Precip.
Yesterday
High -- | Low -- °F
Precip. -- in
6:55 AM 7:51 PM
Full, 98% visible
Pressure 30.09 in
Visibility 10.0 miles
Clouds Mostly Cloudy 2000 ft
Mostly Cloudy 2500 ft
Mostly Cloudy 3300 ft
Heat Index 83 °F
Dew Point 74 °F
Humidity 84%
Rainfall in
Snow Depth Not available.
UV 4 out of 12
Pollen 2.20 out of 12
Air Quality Not available.
Flu Activity Not available.
METAR KOGB 301953Z AUTO 07004KT 10SM BKN020 BKN025 BKN033 25/22 A3010 RMK AO2 RAE32 SLP190 P0009 T02500222
Pressure 30.09 in
Visibility 10.0 miles
Clouds Mostly Cloudy 2000 ft
Mostly Cloudy 2500 ft
Mostly Cloudy 3300 ft
Heat Index 83 °F
Dew Point 74 °F
Humidity 84%
Rainfall in
Snow Depth Not available.
UV 4 out of 12
Pollen 2.20 out of 12
Air Quality Not available.
Flu Activity Not available.
METAR KOGB 301953Z AUTO 07004KT 10SM BKN020 BKN025 BKN033 25/22 A3010 RMK AO2 RAE32 SLP190 P0009 T02500222

10-Day Weather Forecast

×

Almanac

Astronomy

Aug. 30, 2015 Rise Set
Actual Time
Civil Twilight
Nautical Twilight
Astronomical Twilight
Moon
Length of Visible Light
Length of Day
Tomorrow will be .
, % of the Moon is Illuminated

Today's Extremes

State Highs State Lows

Community

WunderPhotos

Upload Photos

1,851,041 photos uploaded!

WunderBlogs® & News

Nearby

Air Quality

  Air Quality AQ Index Pollutant
Not available.

Snow Depth

Station Depth Elevation

Earthquake Activity

City Distance Mag. Time & Date
Minimum magnitude displayed is 2.5.

Coastal Water Temperatures

Place Temperature

Stations

Nearby Weather Stations

Station Location Temp. Windchill Dew Point Humidity Wind Precip. Elev Updated Type